Time;durP1;ratioP1;P1;durP2;ratioP2;P2;SDS_P1;SDS_P2;PMS_P1;PMS_P2;Temp;Humidity;BMP_temperature;BMP_pressure;BME280_temperature;BME280_humidity;BME280_pressure;Samples;Min_cycle;Max_cycle;Signal;HPM_P1;HPM_P2
2023/05/23 00:02:16;;;;;;;10.07;9.07;;;18.70;79.30;;;21.46;53.54;101334.72;5053419;28;20290;-67
2023/05/23 00:04:44;;;;;;;9.70;8.73;;;18.70;79.40;;;21.44;53.50;101331.44;5052950;28;20222;-68
2023/05/23 00:07:11;;;;;;;11.10;9.97;;;18.60;79.40;;;21.41;53.24;101325.75;5053590;28;20212;-68
2023/05/23 00:09:38;;;;;;;12.00;9.27;;;18.60;79.30;;;21.38;53.58;101326.19;5053353;28;20284;-68
2023/05/23 00:12:05;;;;;;;9.93;9.03;;;18.60;79.50;;;21.38;53.37;101323.50;5053228;28;20219;-68
2023/05/23 00:14:34;;;;;;;9.63;8.63;;;18.60;79.60;;;21.35;53.91;101330.16;5052960;28;20585;-68
2023/05/23 00:17:01;;;;;;;9.03;8.13;;;18.50;79.60;;;21.35;53.95;101324.78;5053400;28;20587;-68
2023/05/23 00:19:29;;;;;;;8.67;7.87;;;18.50;79.60;;;21.36;53.30;101317.56;5053608;28;20197;-67
2023/05/23 00:21:57;;;;;;;9.53;8.60;;;18.50;79.50;;;21.34;53.31;101314.31;5052147;28;20236;-68
2023/05/23 00:24:24;;;;;;;10.90;8.10;;;18.50;79.60;;;21.33;53.88;101313.50;5053063;28;20612;-68
2023/05/23 00:26:51;;;;;;;8.63;7.83;;;18.50;79.70;;;21.32;53.72;101321.78;5053668;28;20190;-68
2023/05/23 00:29:18;;;;;;;8.50;7.57;;;18.50;79.70;;;21.31;53.63;101318.28;5058075;28;20193;-67
2023/05/23 00:31:45;;;;;;;10.97;8.07;;;18.50;79.60;;;21.30;53.85;101319.31;5057197;28;20658;-67
2023/05/23 00:34:14;;;;;;;8.77;7.47;;;18.50;79.60;;;21.29;53.36;101328.41;5057398;28;20256;-67
2023/05/23 00:36:43;;;;;;;7.77;7.07;;;18.50;79.70;;;21.25;53.77;101321.84;5057576;28;20193;-68
2023/05/23 00:39:18;;;;;;;7.00;6.33;;;18.40;79.70;;;21.23;53.41;101318.59;5057391;28;20225;-67
2023/05/23 00:41:47;;;;;;;6.47;5.97;;;18.40;79.80;;;21.22;53.73;101325.00;5057309;28;20201;-68
2023/05/23 00:44:18;;;;;;;7.03;6.17;;;18.40;79.60;;;21.21;53.94;101323.38;5055926;28;20245;-67
2023/05/23 00:46:52;;;;;;;6.43;5.87;;;18.40;79.70;;;21.22;53.77;101316.97;5057079;28;20281;-66
2023/05/23 00:49:20;;;;;;;5.90;5.40;;;18.40;79.70;;;21.23;53.86;101318.59;5057116;28;20623;-67
2023/05/23 00:51:49;;;;;;;6.47;5.87;;;18.40;79.60;;;21.23;53.35;101312.41;5056961;28;20709;-68
2023/05/23 00:54:23;;;;;;;5.90;4.87;;;18.40;80.30;;;21.25;53.28;101310.34;5056376;28;20217;-67
2023/05/23 00:56:50;;;;;;;6.13;5.60;;;18.40;79.60;;;21.29;53.39;101317.69;5056864;28;20273;-68
2023/05/23 00:59:20;;;;;;;6.57;5.87;;;18.40;79.50;;;21.32;53.65;101317.22;5057296;28;20190;-68
2023/05/23 01:01:50;;;;;;;6.40;5.87;;;18.40;79.40;;;21.32;52.98;101314.53;5057080;28;20530;-68
2023/05/23 01:04:19;;;;;;;5.93;5.43;;;18.40;79.20;;;21.30;53.02;101313.94;5056255;28;20279;-66
2023/05/23 01:06:48;;;;;;;6.47;5.80;;;18.40;79.10;;;21.28;53.26;101302.66;5056413;28;20226;-66
2023/05/23 01:09:17;;;;;;;6.80;5.33;;;18.40;79.00;;;21.24;53.42;101301.50;5056461;28;20615;-67
2023/05/23 01:11:56;;;;;;;6.47;5.97;;;18.40;78.90;;;21.20;53.17;101303.00;5056822;28;20186;-70
2023/05/23 01:14:34;;;;;;;6.37;5.80;;;18.40;79.10;;;21.16;53.52;101296.47;5046977;28;20221;-67
2023/05/23 01:17:12;;;;;;;6.00;5.20;;;18.40;79.20;;;21.13;53.02;101291.59;5056399;28;20204;-68
2023/05/23 01:19:59;;;;;;;6.40;5.80;;;18.40;79.30;;;21.09;53.21;101286.91;5056480;28;20181;-68
2023/05/23 01:23:11;;;;;;;6.73;6.13;;;18.30;79.30;;;21.04;53.37;101297.47;5056904;28;20225;-67
2023/05/23 01:26:02;;;;;;;5.23;4.73;;;18.30;79.50;;;21.02;53.91;101284.28;5056476;28;20220;-68
2023/05/23 01:28:36;;;;;;;6.80;6.20;;;18.30;79.50;;;21.03;53.63;101285.13;5056346;28;20635;-68
2023/05/23 01:31:09;;;;;;;6.03;5.50;;;18.30;79.70;;;21.02;53.92;101283.47;5056334;28;20264;-68
2023/05/23 01:33:39;;;;;;;8.50;6.17;;;18.30;79.70;;;21.01;53.49;101281.88;5055344;28;20912;-68
2023/05/23 01:36:07;;;;;;;7.07;6.27;;;18.30;80.00;;;20.99;53.41;101270.56;5056137;28;20328;-67
2023/05/23 01:38:34;;;;;;;6.77;6.07;;;18.20;79.80;;;20.95;53.94;101275.56;5054640;28;20204;-67
2023/05/23 01:41:01;;;;;;;6.77;6.07;;;18.20;79.80;;;20.93;54.12;101288.34;5056123;28;20272;-68
2023/05/23 01:43:30;;;;;;;6.53;5.37;;;18.20;79.90;;;20.91;53.84;101285.09;5055800;28;20204;-68
2023/05/23 01:46:00;;;;;;;6.73;6.03;;;18.20;80.00;;;20.91;53.69;101285.09;5056214;28;20234;-68
2023/05/23 01:48:29;;;;;;;7.37;6.67;;;18.10;79.90;;;20.90;54.35;101280.78;5055639;28;20566;-67
2023/05/23 01:50:57;;;;;;;7.20;6.47;;;18.10;80.20;;;20.91;54.24;101282.41;5056135;28;20204;-70
2023/05/23 01:53:26;;;;;;;7.27;6.57;;;18.10;80.30;;;20.89;54.36;101281.84;5055602;28;20213;-70
2023/05/23 01:55:54;;;;;;;7.13;6.43;;;18.10;80.30;;;20.90;53.83;101286.13;5055989;28;20215;-69
2023/05/23 01:58:21;;;;;;;8.53;6.83;;;18.10;80.30;;;20.90;54.46;101283.44;5055889;28;20194;-69
2023/05/23 02:00:49;;;;;;;7.13;6.53;;;18.10;80.60;;;20.92;54.48;101279.50;5055973;28;20290;-70
2023/05/23 02:03:17;;;;;;;7.00;6.30;;;18.10;80.70;;;20.96;54.24;101285.22;5055364;28;20259;-68
2023/05/23 02:05:44;;;;;;;8.27;7.03;;;18.10;80.70;;;20.99;54.46;101278.59;5055626;28;20209;-72
2023/05/23 02:08:11;;;;;;;7.43;6.80;;;18.10;80.70;;;21.03;54.46;101285.94;5055503;28;20205;-71
2023/05/23 02:10:38;;;;;;;8.67;7.73;;;18.20;80.70;;;21.07;54.21;101286.31;5055705;28;20277;-69
2023/05/23 02:13:05;;;;;;;10.87;7.87;;;18.20;80.60;;;21.06;54.35;101288.16;5055067;28;20221;-68
2023/05/23 02:15:32;;;;;;;8.33;7.43;;;18.20;80.30;;;21.04;53.88;101303.63;5055254;28;20256;-69
2023/05/23 02:18:02;;;;;;;9.77;8.23;;;18.20;80.30;;;21.01;54.38;101303.28;5055603;28;20192;-69
2023/05/23 02:20:29;;;;;;;10.53;9.40;;;18.20;80.40;;;20.99;54.01;101300.81;5055178;28;20611;-68
2023/05/23 02:22:56;;;;;;;9.13;8.27;;;18.20;80.40;;;21.00;54.39;101301.63;5054981;28;20193;-69
2023/05/23 02:25:23;;;;;;;10.07;9.07;;;18.20;80.50;;;21.00;54.22;101294.41;5054843;28;20210;-69
2023/05/23 02:27:49;;;;;;;12.07;10.87;;;18.20;80.50;;;21.00;53.94;101297.09;5055120;28;20230;-69
2023/05/23 02:30:16;;;;;;;11.20;10.03;;;18.20;80.60;;;21.01;54.42;101301.41;5054910;28;20198;-68
2023/05/23 02:32:43;;;;;;;13.00;11.70;;;18.20;80.70;;;21.02;54.09;101295.00;5054559;28;20214;-69
2023/05/23 02:35:12;;;;;;;12.03;10.30;;;18.20;80.90;;;21.03;54.18;101296.66;5054552;28;20217;-68
2023/05/23 02:37:39;;;;;;;10.73;9.73;;;18.20;80.90;;;21.05;54.67;101294.59;5055375;28;20194;-68
2023/05/23 02:40:08;;;;;;;13.80;11.80;;;18.20;81.10;;;21.08;54.24;101288.78;5054843;28;20244;-69
2023/05/23 02:42:35;;;;;;;13.17;11.83;;;18.20;81.10;;;21.07;54.00;101287.13;5054943;28;20194;-69
2023/05/23 02:45:03;;;;;;;14.07;12.60;;;18.20;81.00;;;21.06;54.14;101288.16;5053430;28;20583;-68
2023/05/23 02:47:30;;;;;;;15.57;13.97;;;18.20;81.10;;;21.06;54.33;101285.50;5054794;28;20650;-68
2023/05/23 02:49:56;;;;;;;14.83;13.07;;;18.20;81.20;;;21.03;54.37;101280.59;5054410;28;20593;-69
2023/05/23 02:52:25;;;;;;;15.80;12.83;;;18.20;81.20;;;21.03;54.41;101279.75;5054519;28;20272;-68
2023/05/23 02:54:52;;;;;;;16.43;14.50;;;18.20;81.30;;;21.02;54.96;101270.91;5054515;28;20209;-68
2023/05/23 02:57:19;;;;;;;14.70;13.20;;;18.20;81.50;;;21.00;55.03;101275.69;5054289;28;20546;-68
2023/05/23 02:59:46;;;;;;;14.80;12.47;;;18.20;81.50;;;20.99;54.49;101267.88;5053749;28;20194;-68
2023/05/23 03:02:13;;;;;;;17.33;15.03;;;18.20;81.50;;;21.00;54.55;101275.69;5054416;28;20276;-69
2023/05/23 03:04:40;;;;;;;16.83;14.30;;;18.20;81.60;;;20.98;54.39;101275.09;5054094;28;20297;-69
2023/05/23 03:07:10;;;;;;;18.43;16.13;;;18.20;81.50;;;20.98;54.82;101275.09;5053915;28;20261;-68
2023/05/23 03:09:54;;;;;;;21.37;16.33;;;18.20;81.70;;;20.98;54.66;101276.97;5054455;28;20198;-68
2023/05/23 03:12:22;;;;;;;20.30;16.50;;;18.20;81.90;;;20.96;55.24;101274.53;5054282;28;20616;-69
2023/05/23 03:14:49;;;;;;;20.53;17.07;;;18.20;81.90;;;20.96;55.02;101279.88;5053361;28;20220;-69
2023/05/23 03:17:16;;;;;;;17.93;15.57;;;18.10;82.10;;;20.96;55.14;101274.53;5054141;28;20202;-69
2023/05/23 03:19:43;;;;;;;19.30;16.17;;;18.20;82.50;;;20.94;55.63;101277.41;5054341;28;20200;-70
2023/05/23 03:22:10;;;;;;;18.43;16.13;;;18.10;82.60;;;20.93;55.22;101291.03;5054419;28;20190;-69
2023/05/23 03:24:37;;;;;;;23.00;18.17;;;18.10;83.00;;;20.91;56.05;101280.56;5053645;28;20221;-68
2023/05/23 03:27:05;;;;;;;24.90;18.20;;;18.10;83.70;;;20.91;55.56;101277.06;5054382;28;20201;-69
2023/05/23 03:29:32;;;;;;;23.50;17.00;;;18.10;83.70;;;20.89;56.40;101279.94;5054322;28;20200;-70
2023/05/23 03:31:59;;;;;;;26.33;20.27;;;18.10;84.00;;;20.90;56.59;101284.28;5053063;28;20717;-68
2023/05/23 03:34:26;;;;;;;24.27;17.97;;;18.10;84.30;;;20.88;56.39;101282.88;5053254;28;20217;-68
2023/05/23 03:36:54;;;;;;;26.67;20.40;;;18.00;84.50;;;20.86;56.35;101288.47;5053844;28;20202;-69
2023/05/23 03:39:22;;;;;;;26.50;20.20;;;18.00;84.80;;;20.84;56.66;101287.06;5053395;28;20200;-71
2023/05/23 03:41:50;;;;;;;29.97;21.40;;;18.10;84.80;;;20.82;56.51;101291.81;5053083;28;20678;-68
2023/05/23 03:44:18;;;;;;;27.57;21.03;;;18.00;85.00;;;20.79;57.36;101289.59;5041093;28;20222;-68
2023/05/23 03:46:45;;;;;;;30.90;21.50;;;17.90;85.20;;;20.78;57.15;101293.31;5035771;28;20693;-69
2023/05/23 03:49:12;;;;;;;28.57;19.80;;;17.90;85.50;;;20.78;57.02;101298.66;5053630;28;20197;-69
2023/05/23 03:51:39;;;;;;;31.53;21.53;;;17.90;85.60;;;20.79;57.64;101292.28;5053323;28;20186;-69
2023/05/23 03:54:07;;;;;;;25.80;19.03;;;17.90;85.90;;;20.76;57.16;101300.75;5051808;28;20241;-68
2023/05/23 03:56:34;;;;;;;25.37;19.77;;;17.90;85.80;;;20.73;57.77;101296.66;5053292;28;20273;-68
2023/05/23 03:59:01;;;;;;;24.23;18.70;;;17.90;86.00;;;20.72;57.75;101296.91;5053256;28;20200;-69
2023/05/23 04:01:29;;;;;;;26.93;18.90;;;17.90;86.30;;;20.72;57.40;101299.56;5052465;28;20186;-69
2023/05/23 04:03:56;;;;;;;31.60;22.03;;;17.90;86.30;;;20.69;58.01;101300.84;5052794;28;20276;-69
2023/05/23 04:06:24;;;;;;;30.40;18.83;;;17.80;86.40;;;20.68;58.28;101303.75;5053203;28;20233;-68
2023/05/23 04:08:51;;;;;;;24.77;18.97;;;17.80;86.50;;;20.64;58.01;101307.91;5053288;28;20193;-69
2023/05/23 04:11:18;;;;;;;30.80;20.37;;;17.80;86.70;;;20.61;58.05;101311.06;5053390;28;20193;-68
2023/05/23 04:13:45;;;;;;;30.00;19.97;;;17.70;87.20;;;20.61;58.68;101303.03;5052682;28;20214;-68
2023/05/23 04:16:13;;;;;;;24.17;18.20;;;17.70;87.50;;;20.62;58.71;101310.00;5053398;28;20630;-69
2023/05/23 04:18:42;;;;;;;23.03;17.03;;;17.80;87.60;;;20.60;58.28;101312.09;5053173;28;20203;-68
2023/05/23 04:21:09;;;;;;;25.70;17.47;;;17.70;87.60;;;20.58;58.34;101322.19;5053092;28;20303;-68
2023/05/23 04:23:37;;;;;;;24.23;17.50;;;17.70;87.60;;;20.57;58.92;101315.22;5053038;28;20667;-69
2023/05/23 04:26:04;;;;;;;18.70;14.20;;;17.70;87.80;;;20.56;58.54;101313.59;5052903;28;20235;-68
2023/05/23 04:28:33;;;;;;;20.67;15.13;;;17.70;87.90;;;20.55;59.22;101319.97;5053151;28;20221;-68
2023/05/23 04:31:01;;;;;;;16.27;12.20;;;17.70;88.10;;;20.55;58.80;101322.66;5052341;28;20222;-69
2023/05/23 04:33:29;;;;;;;19.53;12.80;;;17.70;87.90;;;20.53;58.67;101322.88;5052658;28;20218;-69
2023/05/23 04:35:57;;;;;;;13.87;12.37;;;17.70;88.00;;;20.51;58.85;101324.97;5052995;28;20558;-69
2023/05/23 04:38:24;;;;;;;14.47;12.60;;;17.70;88.10;;;20.50;59.15;101330.53;5053084;28;20190;-68
2023/05/23 04:40:52;;;;;;;13.37;11.13;;;17.60;88.30;;;20.50;59.42;101341.22;5053953;28;20600;-69
2023/05/23 04:43:20;;;;;;;16.10;12.87;;;17.60;88.50;;;20.47;59.16;101333.63;5052433;28;20190;-69
2023/05/23 04:45:53;;;;;;;15.47;12.80;;;17.60;88.70;;;20.46;59.15;101332.84;5053005;28;20408;-70
2023/05/23 04:48:22;;;;;;;13.73;11.30;;;17.60;88.90;;;20.46;59.29;101337.38;5053078;28;20225;-69
2023/05/23 04:50:51;;;;;;;13.03;10.90;;;17.60;89.20;;;20.47;59.26;101334.47;5053093;28;20269;-68
2023/05/23 04:53:19;;;;;;;12.67;11.37;;;17.60;89.10;;;20.49;59.65;101334.25;5052522;28;20248;-69
2023/05/23 04:55:47;;;;;;;16.77;11.33;;;17.60;89.20;;;20.51;59.73;101340.19;5052710;28;20210;-69
2023/05/23 04:58:14;;;;;;;16.83;11.57;;;17.60;89.30;;;20.52;59.56;101336.47;5052793;28;20202;-70
2023/05/23 05:00:41;;;;;;;13.97;11.77;;;17.60;89.40;;;20.54;59.37;101347.78;5053319;28;20190;-68
2023/05/23 05:03:08;;;;;;;11.43;10.17;;;17.60;89.30;;;20.53;59.36;101346.13;5053307;28;20206;-67
2023/05/23 05:05:36;;;;;;;13.00;10.87;;;17.60;89.10;;;20.53;59.45;101354.97;5053773;28;20265;-68
2023/05/23 05:08:03;;;;;;;10.90;9.80;;;17.60;88.70;;;20.52;59.32;101357.84;5054133;28;20220;-68
2023/05/23 05:10:31;;;;;;;11.20;9.57;;;17.60;88.70;;;20.49;59.27;101363.69;5054876;28;20201;-68
2023/05/23 05:12:58;;;;;;;10.20;9.03;;;17.60;88.30;;;20.49;59.05;101361.00;5055387;28;20286;-68
2023/05/23 05:15:25;;;;;;;13.33;9.43;;;17.60;87.70;;;20.43;58.67;101367.22;5060379;28;20236;-69
2023/05/23 05:17:52;;;;;;;11.07;9.97;;;17.60;87.40;;;20.39;58.66;101371.41;5060555;28;20194;-69
2023/05/23 05:20:20;;;;;;;10.97;9.10;;;17.50;87.20;;;20.37;58.23;101368.13;5060930;28;20639;-69
2023/05/23 05:22:56;;;;;;;10.50;8.97;;;17.50;87.40;;;20.34;58.63;101376.59;5060883;28;20539;-67
2023/05/23 05:25:23;;;;;;;10.80;9.60;;;17.50;87.40;;;20.34;58.74;101376.59;5060877;28;20534;-68
2023/05/23 05:27:52;;;;;;;15.33;9.90;;;17.40;87.40;;;20.34;58.21;101379.28;5060320;28;20293;-68
2023/05/23 05:30:19;;;;;;;12.60;10.20;;;17.40;87.30;;;20.30;58.56;101381.56;5040147;28;20214;-70
2023/05/23 05:32:46;;;;;;;12.20;9.80;;;17.40;87.00;;;20.25;58.27;101390.25;5049281;28;20201;-70
2023/05/23 05:35:13;;;;;;;10.27;8.77;;;17.30;86.90;;;20.22;58.15;101393.41;5055594;28;20218;-70
2023/05/23 05:37:40;;;;;;;13.50;9.70;;;17.30;87.30;;;20.21;57.86;101394.38;5056032;28;20198;-70
2023/05/23 05:40:08;;;;;;;14.00;9.80;;;17.30;86.90;;;20.16;58.30;101398.75;5056169;28;20194;-68
2023/05/23 05:42:35;;;;;;;13.17;9.63;;;17.20;86.80;;;20.09;57.73;101396.16;5056165;28;20205;-69
2023/05/23 05:45:05;;;;;;;12.83;9.63;;;17.20;86.40;;;20.06;58.11;101409.94;5055446;28;20206;-68
2023/05/23 05:47:32;;;;;;;15.10;11.13;;;17.20;86.60;;;20.02;58.17;101419.44;5055187;28;20232;-68
2023/05/23 05:50:00;;;;;;;12.80;9.87;;;17.20;87.10;;;20.03;57.93;101414.94;5055380;28;20247;-70
2023/05/23 05:52:27;;;;;;;11.30;8.97;;;17.10;86.90;;;20.04;58.64;101419.25;5055648;28;20189;-69
2023/05/23 05:54:56;;;;;;;14.17;9.63;;;17.20;87.40;;;20.06;58.31;101423.31;5055649;28;20239;-68
2023/05/23 05:57:23;;;;;;;13.97;9.30;;;17.10;86.90;;;20.04;57.59;101429.94;5055359;28;20269;-68
2023/05/23 05:59:51;;;;;;;12.47;9.03;;;17.10;86.40;;;19.98;57.54;101431.63;5055252;28;20209;-68
2023/05/23 06:02:19;;;;;;;12.70;9.73;;;17.10;86.20;;;19.92;57.64;101431.69;5055377;28;20273;-68
2023/05/23 06:04:46;;;;;;;10.57;7.97;;;17.00;86.10;;;19.86;57.62;101428.03;5055265;28;20241;-68
2023/05/23 06:07:13;;;;;;;16.27;8.73;;;17.00;86.70;;;19.88;58.09;101444.66;5055426;28;20198;-68
2023/05/23 06:09:40;;;;;;;13.27;8.80;;;17.00;87.00;;;19.91;58.12;101438.88;5055102;28;20200;-68
2023/05/23 06:12:07;;;;;;;16.70;10.13;;;17.00;86.90;;;19.94;58.28;101451.81;5055421;28;20198;-71
2023/05/23 06:14:34;;;;;;;15.60;8.70;;;17.00;86.90;;;19.94;57.44;101457.16;5055071;28;20300;-69
2023/05/23 06:17:02;;;;;;;15.10;7.80;;;17.00;85.90;;;19.93;57.56;101449.34;5050363;28;20256;-70
2023/05/23 06:19:30;;;;;;;14.37;7.60;;;17.00;86.10;;;19.89;56.89;101457.00;5046268;28;20204;-69
2023/05/23 06:21:58;;;;;;;11.87;6.23;;;17.00;85.40;;;19.86;57.52;101462.78;5055104;28;20610;-69
2023/05/23 06:24:24;;;;;;;15.60;7.90;;;17.00;85.70;;;19.84;56.80;101459.50;5054101;28;20209;-68
2023/05/23 06:26:51;;;;;;;11.87;6.60;;;16.90;85.30;;;19.80;57.44;101471.63;5055259;28;20197;-69
2023/05/23 06:29:18;;;;;;;10.97;6.60;;;16.90;85.60;;;19.78;57.27;101472.91;5053571;28;20626;-69
2023/05/23 06:31:45;;;;;;;13.63;6.70;;;16.90;86.10;;;19.79;57.29;101472.69;5054908;28;20198;-68
2023/05/23 06:34:12;;;;;;;9.57;6.30;;;16.90;85.90;;;19.76;57.00;101474.97;5054435;28;20222;-69
2023/05/23 06:36:41;;;;;;;9.33;5.83;;;16.80;85.50;;;19.72;57.66;101484.44;5054551;28;20681;-68
2023/05/23 06:39:08;;;;;;;13.37;6.20;;;16.80;86.30;;;19.69;57.18;101493.72;5054574;28;20200;-69
2023/05/23 06:41:35;;;;;;;11.73;5.33;;;16.80;85.80;;;19.63;57.57;101489.25;5054707;28;20637;-71
2023/05/23 06:44:02;;;;;;;11.10;6.47;;;16.70;85.80;;;19.61;57.79;101491.31;5053027;28;20655;-70
2023/05/23 06:46:30;;;;;;;16.07;6.80;;;16.70;86.20;;;19.63;57.53;101497.25;5054503;28;20273;-69
2023/05/23 06:48:57;;;;;;;13.73;7.03;;;16.70;86.00;;;19.63;57.50;101494.59;5054619;28;20681;-69
2023/05/23 06:51:41;;;;;;;15.63;6.90;;;16.70;85.90;;;19.64;57.51;101503.41;5054745;28;20175;-68
2023/05/23 06:54:09;;;;;;;9.77;6.20;;;16.70;85.80;;;19.63;57.07;101509.78;5054192;28;20646;-67
2023/05/23 06:56:36;;;;;;;12.03;5.70;;;16.70;85.80;;;19.63;57.30;101502.59;5054604;28;20272;-69
2023/05/23 06:59:03;;;;;;;12.27;5.03;;;16.70;85.70;;;19.62;57.32;101508.13;5053054;28;20220;-70
2023/05/23 07:01:30;;;;;;;11.17;5.40;;;16.70;85.20;;;19.59;56.92;101514.72;5054538;28;20551;-69
2023/05/23 07:03:57;;;;;;;10.83;5.87;;;16.60;85.20;;;19.55;57.07;101511.69;5053785;28;20190;-69
2023/05/23 07:06:26;;;;;;;11.40;5.63;;;16.60;85.40;;;19.55;57.06;101518.88;5053603;28;20218;-69
2023/05/23 07:08:54;;;;;;;13.10;4.67;;;16.60;85.20;;;19.56;57.30;101528.53;5048828;28;20268;-69
2023/05/23 07:11:21;;;;;;;11.90;5.23;;;16.70;85.50;;;19.56;57.19;101531.22;5053744;28;20340;-69
2023/05/23 07:13:49;;;;;;;11.30;5.57;;;16.60;85.20;;;19.56;56.85;101533.88;5046021;28;20206;-70
2023/05/23 07:16:16;;;;;;;14.23;4.93;;;16.60;85.10;;;19.56;57.12;101529.34;5053683;28;20190;-68
2023/05/23 07:18:43;;;;;;;12.83;5.23;;;16.70;85.20;;;19.58;56.78;101537.16;5045320;28;20198;-70
2023/05/23 07:21:10;;;;;;;14.70;4.20;;;16.70;85.10;;;19.59;56.70;101544.09;5041027;28;20201;-69
2023/05/23 07:23:37;;;;;;;12.33;4.83;;;16.70;84.30;;;19.60;56.78;101556.44;5052003;28;20634;-70
2023/05/23 07:26:08;;;;;;;5.77;4.10;;;16.60;84.40;;;19.55;56.16;101545.59;5050281;28;20666;-69
2023/05/23 07:28:36;;;;;;;8.93;4.53;;;16.60;83.80;;;19.53;56.44;101558.34;5035100;28;20190;-69
2023/05/23 07:31:03;;;;;;;13.63;4.83;;;16.60;84.10;;;19.51;56.38;101563.06;5035627;28;20198;-70
2023/05/23 07:33:33;;;;;;;9.97;5.03;;;16.60;84.20;;;19.49;56.15;101560.59;5047817;28;20236;-69
2023/05/23 07:36:00;;;;;;;13.87;4.57;;;16.60;83.90;;;19.43;55.67;101571.31;5053202;28;20218;-68
2023/05/23 07:38:27;;;;;;;8.67;4.27;;;16.40;83.30;;;19.37;55.78;101578.31;5053263;28;20196;-70
2023/05/23 07:40:54;;;;;;;10.50;4.13;;;16.40;83.30;;;19.34;56.13;101573.38;5053635;28;20186;-70
2023/05/23 07:43:38;;;;;;;9.33;4.50;;;16.40;84.20;;;19.36;56.04;101581.19;5051879;28;20185;-70
2023/05/23 07:46:05;;;;;;;6.80;4.03;;;16.40;83.90;;;19.36;55.62;101575.88;5053631;28;20221;-69
2023/05/23 07:48:32;;;;;;;13.33;4.80;;;16.40;83.30;;;19.31;55.50;101595.16;5053297;28;20198;-68
2023/05/23 07:50:59;;;;;;;11.90;4.60;;;16.40;83.10;;;19.28;55.93;101594.78;5053523;28;20280;-68
2023/05/23 07:53:26;;;;;;;10.70;4.53;;;16.30;83.40;;;19.22;55.65;101598.25;5052401;28;20190;-69
2023/05/23 07:55:53;;;;;;;11.30;4.83;;;16.30;83.00;;;19.17;55.43;101603.41;5053390;28;20209;-69
2023/05/23 07:58:21;;;;;;;10.80;5.23;;;16.20;82.90;;;19.10;55.52;101606.09;5052835;28;20596;-68
2023/05/23 08:00:50;;;;;;;10.13;4.80;;;16.20;83.40;;;19.09;55.97;101617.00;5052284;28;20194;-68
2023/05/23 08:03:19;;;;;;;9.40;5.13;;;16.20;83.70;;;19.02;56.15;101618.88;5047678;28;20217;-69
2023/05/23 08:05:46;;;;;;;8.83;4.43;;;16.10;83.90;;;19.00;56.54;101618.22;5048710;28;20221;-68
2023/05/23 08:08:14;;;;;;;8.53;4.40;;;16.10;84.30;;;18.99;56.42;101621.94;5050674;28;20205;-71
2023/05/23 08:11:00;;;;;;;7.03;3.10;;;16.10;84.40;;;18.96;56.27;101623.16;5051609;28;20279;-71
2023/05/23 08:13:44;;;;;;;7.87;3.13;;;16.00;84.30;;;18.92;56.50;101638.75;5032554;28;20206;-69
2023/05/23 08:16:13;;;;;;;5.20;2.77;;;16.00;84.30;;;18.90;56.84;101630.16;5041005;28;20218;-73
2023/05/23 08:18:41;;;;;;;7.03;3.93;;;16.00;85.10;;;18.91;57.34;101637.13;5037380;28;20209;-71
2023/05/23 08:21:10;;;;;;;9.07;4.13;;;16.00;85.70;;;18.89;56.91;101643.72;5049751;28;20210;-71
2023/05/23 08:23:38;;;;;;;8.87;3.83;;;15.90;84.70;;;18.83;56.65;101650.69;5029991;28;20206;-71
2023/05/23 08:26:06;;;;;;;6.77;3.97;;;15.80;84.40;;;18.70;56.50;101645.34;5035199;28;20301;-71
2023/05/23 08:28:34;;;;;;;7.13;3.80;;;15.70;84.40;;;18.64;56.86;101651.50;5036769;28;20226;-72
2023/05/23 08:31:02;;;;;;;11.20;4.87;;;15.70;84.90;;;18.60;57.15;101652.94;5024408;28;20197;-71
2023/05/23 08:33:32;;;;;;;8.20;4.47;;;15.70;84.90;;;18.59;56.87;101659.28;5050224;28;20301;-72
2023/05/23 08:35:59;;;;;;;13.57;5.23;;;15.70;84.90;;;18.58;56.76;101665.66;5042597;28;20281;-71
2023/05/23 08:38:27;;;;;;;13.87;5.07;;;15.60;84.80;;;18.58;56.74;101672.84;5052748;28;20190;-71
2023/05/23 08:41:15;;;;;;;12.90;5.10;;;15.60;84.80;;;18.57;57.24;101673.84;5050475;28;20298;-71
2023/05/23 08:44:01;;;;;;;9.50;4.40;;;15.60;84.80;;;18.51;56.73;101672.00;5037374;28;20624;-71
2023/05/23 08:46:32;;;;;;;9.07;3.90;;;15.60;84.30;;;18.55;56.24;101682.06;5040029;28;20690;-71
2023/05/23 08:49:02;;;;;;;8.33;4.57;;;15.60;83.70;;;18.58;56.22;101684.34;5037284;28;20674;-70
2023/05/23 08:51:37;;;;;;;15.20;4.40;;;15.60;83.50;;;18.63;55.86;101676.53;5029419;28;20232;-69
2023/05/23 08:54:14;;;;;;;10.83;4.83;;;15.60;83.00;;;18.65;55.38;101684.34;5040168;28;20248;-68
2023/05/23 08:56:47;;;;;;;17.37;7.73;;;15.60;82.80;;;18.72;55.94;101691.31;5037507;28;20626;-73
2023/05/23 08:59:21;;;;;;;11.07;4.77;;;15.70;83.60;;;18.88;55.42;101701.56;5036148;28;20226;-71
2023/05/23 09:01:55;;;;;;;14.17;5.43;;;15.80;82.90;;;18.94;55.16;101700.75;5038821;28;20219;-68
2023/05/23 09:04:24;;;;;;;13.30;4.97;;;15.80;82.30;;;18.93;54.16;101699.13;5040681;28;20210;-68
2023/05/23 09:06:51;;;;;;;9.37;4.67;;;15.80;80.80;;;18.90;54.13;101712.03;5040988;28;20221;-69
2023/05/23 09:09:18;;;;;;;17.33;5.17;;;15.80;80.70;;;18.84;53.52;101716.34;5055777;28;20197;-71
2023/05/23 09:11:46;;;;;;;12.53;5.53;;;15.70;79.90;;;18.80;53.91;101712.44;5050068;28;20684;-67
2023/05/23 09:14:13;;;;;;;13.07;5.50;;;15.80;80.50;;;18.81;54.30;101711.44;5049855;28;20206;-69
2023/05/23 09:16:46;;;;;;;11.23;4.33;;;15.80;80.70;;;18.81;53.49;101719.44;5056183;28;20197;-68
2023/05/23 09:19:14;;;;;;;14.27;5.77;;;15.80;80.10;;;18.78;53.49;101722.50;5038082;28;20245;-69
2023/05/23 09:21:44;;;;;;;15.40;5.50;;;15.70;79.70;;;18.76;53.43;101719.22;5036344;28;20186;-70
2023/05/23 09:24:11;;;;;;;11.27;5.30;;;15.80;79.80;;;18.75;53.67;101727.44;5036183;28;20210;-70
2023/05/23 09:26:38;;;;;;;12.50;5.30;;;15.70;79.90;;;18.74;53.15;101729.28;5035843;28;20741;-69
2023/05/23 09:29:06;;;;;;;10.67;5.67;;;15.70;79.70;;;18.76;53.22;101735.22;5037122;28;20190;-69
2023/05/23 09:31:33;;;;;;;12.77;5.77;;;15.70;79.50;;;18.81;53.31;101743.44;5036151;28;20277;-68
2023/05/23 09:34:01;;;;;;;13.43;5.10;;;15.70;79.10;;;18.85;52.94;101749.22;5035613;28;20651;-69
2023/05/23 09:36:31;;;;;;;11.23;4.57;;;15.80;79.00;;;18.90;52.62;101758.22;5036342;28;20749;-71
2023/05/23 09:39:03;;;;;;;12.13;5.60;;;15.80;78.90;;;18.92;52.75;101750.81;5050253;28;20679;-69
2023/05/23 09:41:32;;;;;;;13.20;4.40;;;15.80;79.10;;;19.00;52.31;101762.31;5054668;28;20205;-70
2023/05/23 09:44:05;;;;;;;10.93;4.10;;;15.90;78.40;;;19.02;51.66;101760.31;5046616;28;20194;-68
2023/05/23 09:46:36;;;;;;;11.87;3.50;;;15.90;77.20;;;19.07;51.15;101773.81;5035300;28;20194;-69
2023/05/23 09:49:16;;;;;;;11.10;4.20;;;15.90;76.30;;;19.11;50.82;101767.06;5050704;28;20224;-70
2023/05/23 09:51:56;;;;;;;9.23;3.60;;;16.00;76.80;;;19.16;49.77;101780.63;5055123;28;20217;-71
2023/05/23 09:54:24;;;;;;;12.30;4.50;;;16.00;74.70;;;19.17;48.91;101768.91;5054589;28;20287;-69
2023/05/23 09:56:54;;;;;;;10.77;4.60;;;16.00;73.40;;;19.17;49.13;101779.59;5055689;28;20214;-70
2023/05/23 09:59:25;;;;;;;12.73;4.17;;;16.00;73.50;;;19.17;48.07;101779.59;5043745;28;20194;-69
2023/05/23 10:01:56;;;;;;;14.03;4.83;;;16.00;72.40;;;19.21;48.55;101795.00;5036095;28;20226;-68
2023/05/23 10:04:30;;;;;;;13.17;3.77;;;16.10;73.00;;;19.27;47.88;101785.34;5043493;28;20608;-69
2023/05/23 10:07:06;;;;;;;9.53;4.10;;;16.10;71.50;;;19.37;47.49;101801.81;5051328;28;20589;-69
2023/05/23 10:09:38;;;;;;;12.60;3.47;;;16.20;71.20;;;19.34;46.06;101791.50;5055690;28;20221;-70
2023/05/23 10:12:44;;;;;;;12.33;4.80;;;16.00;68.70;;;19.24;45.88;101791.09;5054652;28;20670;-71
2023/05/23 10:15:16;;;;;;;8.93;4.50;;;16.00;69.20;;;19.33;46.50;101793.34;5046571;28;20210;-69